createdAt,value
2022-10-25T00:05:02.307Z,0.01
2022-10-25T00:07:51.643Z,0
2022-10-25T00:17:49.570Z,0.01
2022-10-25T00:22:57.792Z,0
2022-10-25T01:02:31.751Z,0.01
2022-10-25T01:05:09.274Z,0
2022-10-25T01:12:39.909Z,0.01
2022-10-25T01:15:23.551Z,0
2022-10-25T01:20:08.486Z,0.01
2022-10-25T01:22:09.677Z,0
2022-10-25T01:37:42.419Z,0.01
2022-10-25T01:40:10.239Z,0
2022-10-25T01:54:10.969Z,0.01
2022-10-25T02:02:11.716Z,0
2022-10-25T02:38:39.689Z,0.01
2022-10-25T02:44:07.510Z,0
2022-10-25T04:52:44.444Z,0.01
2022-10-25T05:00:06.431Z,0
2022-10-25T05:02:47.596Z,0.01
2022-10-25T05:05:14.188Z,0
2022-10-25T05:12:12.652Z,0.01
2022-10-25T05:22:02.561Z,0.02
2022-10-25T05:24:41.789Z,0.03
2022-10-25T05:27:06.821Z,0.07
2022-10-25T05:29:17.637Z,0.1
2022-10-25T05:32:17.257Z,0.16
2022-10-25T05:35:02.602Z,0.22
2022-10-25T05:37:33.762Z,0.32
2022-10-25T05:39:50.683Z,0.47
2022-10-25T05:41:53.668Z,0.65
2022-10-25T05:44:45.273Z,1.04
2022-10-25T05:47:22.593Z,1.59
2022-10-25T05:49:45.876Z,2.4
2022-10-25T05:51:54.779Z,3.4
2022-10-25T05:54:52.530Z,5.04
2022-10-25T05:57:36.262Z,6.63
2022-10-25T06:00:05.737Z,8.34
2022-10-25T06:02:21.245Z,10.55
2022-10-25T06:04:22.483Z,12.63
2022-10-25T06:07:12.584Z,15.01
2022-10-25T06:09:47.990Z,15.91
2022-10-25T06:12:09.592Z,17.93
2022-10-25T06:14:16.794Z,20.42
2022-10-25T06:17:12.711Z,18.87
2022-10-25T06:19:54.342Z,30.14
2022-10-25T06:22:22.058Z,33.22
2022-10-25T06:24:35.584Z,36.04
2022-10-25T06:26:34.894Z,39.71
2022-10-25T06:29:23.018Z,41.26
2022-10-25T06:31:56.842Z,45.26
2022-10-25T06:34:16.481Z,47.72
2022-10-25T06:36:22.191Z,53.42
2022-10-25T06:39:16.425Z,58.14
2022-10-25T06:41:56.552Z,59.48
2022-10-25T06:44:22.045Z,60.28
2022-10-25T06:46:33.829Z,62.64
2022-10-25T06:48:31.511Z,67.16
2022-10-25T06:51:17.649Z,70.96
2022-10-25T06:53:49.885Z,68.22
2022-10-25T06:56:09.310Z,84.12
2022-10-25T06:58:11.838Z,117.76
2022-10-25T07:01:04.611Z,122.04
2022-10-25T07:03:42.970Z,123.76
2022-10-25T07:06:07.182Z,156.08
2022-10-25T07:08:17.314Z,182.4
2022-10-25T07:11:16.029Z,218.4
2022-10-25T07:14:00.587Z,219.9
2022-10-25T07:16:30.957Z,257.7
2022-10-25T07:18:47.282Z,259.7
2022-10-25T07:20:49.393Z,236.7
2022-10-25T07:23:40.059Z,237
2022-10-25T07:26:16.688Z,236
2022-10-25T07:28:39.204Z,240.5
2022-10-25T07:30:47.456Z,255.2
2022-10-25T07:33:44.633Z,305.4
2022-10-25T07:36:27.099Z,398.5
2022-10-25T07:38:55.732Z,340
2022-10-25T07:41:10.215Z,339.8
2022-10-25T07:43:10.612Z,393.7
2022-10-25T07:45:59.707Z,383.3
2022-10-25T07:48:34.579Z,315.1
2022-10-25T07:50:55.445Z,237.3
2022-10-25T07:53:02.101Z,270.3
2022-10-25T07:55:57.331Z,540.6
2022-10-25T07:58:38.515Z,460.8
2022-10-25T08:01:05.617Z,529.4
2022-10-25T08:03:18.491Z,449.2
2022-10-25T08:05:17.114Z,342.7
2022-10-25T08:08:04.466Z,342.4
2022-10-25T08:10:37.830Z,289.5
2022-10-25T08:12:56.684Z,281.5
2022-10-25T08:15:01.753Z,297.2
2022-10-25T08:17:55.327Z,291.6
2022-10-25T08:20:56.724Z,444.3
2022-10-25T08:22:59.964Z,326.4
2022-10-25T08:25:11.050Z,340.6
2022-10-25T08:28:10.364Z,325.2
2022-10-25T08:30:56.088Z,345.2
2022-10-25T08:33:27.540Z,317.5
2022-10-25T08:35:44.741Z,331.3
2022-10-25T08:37:48.243Z,341.7
2022-10-25T08:40:39.911Z,342
2022-10-25T08:43:17.609Z,383
2022-10-25T08:45:42.001Z,370
2022-10-25T08:47:50.337Z,311.1
2022-10-25T08:50:48.384Z,360.3
2022-10-25T08:53:32.192Z,369.2
2022-10-25T08:56:16.846Z,390.4
2022-10-25T08:58:17.488Z,400.8
2022-10-25T09:00:18.917Z,402.8
2022-10-25T09:03:11.416Z,414
2022-10-25T09:05:44.937Z,398.2
2022-10-25T09:08:06.577Z,386.8
2022-10-25T09:10:14.195Z,381.9
2022-10-25T09:13:10.832Z,398.5
2022-10-25T09:15:52.509Z,413.6
2022-10-25T09:18:20.270Z,414.7
2022-10-25T09:20:33.688Z,421.2
2022-10-25T09:22:33.239Z,434.7
2022-10-25T09:25:21.448Z,464.6
2022-10-25T09:27:55.626Z,354.5
2022-10-25T09:30:15.587Z,359
2022-10-25T09:32:21.388Z,394
2022-10-25T09:35:16.046Z,441.9
2022-10-25T09:37:56.322Z,456.4
2022-10-25T09:40:22.395Z,422.2
2022-10-25T09:42:34.557Z,367.8
2022-10-25T09:44:32.442Z,386.2
2022-10-25T09:47:18.960Z,380.1
2022-10-25T09:49:51.253Z,346.2
2022-10-25T09:52:09.574Z,366.5
2022-10-25T09:54:13.493Z,341.6
2022-10-25T09:57:06.126Z,359.2
2022-10-25T09:59:44.869Z,355.6
2022-10-25T10:02:09.381Z,344.3
2022-10-25T10:04:19.485Z,275.8
2022-10-25T10:07:18.491Z,280.9
2022-10-25T10:10:03.199Z,204.4
2022-10-25T10:12:33.356Z,303.4
2022-10-25T10:14:49.722Z,238.4
2022-10-25T10:16:52.086Z,268.5
2022-10-25T10:19:43.055Z,365.7
2022-10-25T10:22:19.786Z,383.5
2022-10-25T10:24:42.659Z,367.6
2022-10-25T10:26:50.993Z,342.4
2022-10-25T10:29:48.114Z,408.9
2022-10-25T10:32:31.211Z,314.8
2022-10-25T10:34:59.992Z,390.4
2022-10-25T10:37:14.587Z,410.4
2022-10-25T10:39:15.156Z,326.4
2022-10-25T10:42:04.317Z,323.6
2022-10-25T10:44:39.287Z,330.5
2022-10-25T10:47:00.033Z,324.6
2022-10-25T10:49:06.916Z,434.5
2022-10-25T10:52:02.160Z,473.9
2022-10-25T10:54:43.413Z,517.4
2022-10-25T10:57:10.565Z,500.4
2022-10-25T10:59:23.510Z,518.4
2022-10-25T11:01:22.171Z,524.6
2022-10-25T11:04:09.325Z,518.8
2022-10-25T11:06:42.642Z,515
2022-10-25T11:09:01.758Z,474.4
2022-10-25T11:11:06.918Z,538.4
2022-10-25T11:14:00.493Z,486.4
2022-10-25T11:16:39.930Z,484.4
2022-10-25T11:19:05.209Z,447.8
2022-10-25T11:21:16.454Z,460
2022-10-25T11:24:16.264Z,439.5
2022-10-25T11:27:01.871Z,444.1
2022-10-25T11:29:33.464Z,504
2022-10-25T11:31:50.741Z,483
2022-10-25T11:33:53.882Z,516.8
2022-10-25T11:36:45.780Z,547.2
2022-10-25T11:39:23.543Z,559.6
2022-10-25T11:41:46.960Z,585.6
2022-10-25T11:43:56.398Z,1273.6
2022-10-25T11:46:54.455Z,694
2022-10-25T11:49:38.319Z,811.5
2022-10-25T11:52:07.935Z,648
2022-10-25T11:54:23.361Z,534.2
2022-10-25T11:56:24.241Z,793.9
2022-10-25T11:59:14.153Z,581.1
2022-10-25T12:01:50.094Z,670.7
2022-10-25T12:04:11.771Z,558.5
2022-10-25T12:06:19.198Z,544
2022-10-25T12:09:15.593Z,1137.6
2022-10-25T12:11:57.684Z,545.2
2022-10-25T12:14:25.543Z,549.7
2022-10-25T12:16:39.105Z,535.8
2022-10-25T12:18:38.645Z,511.3
2022-10-25T12:21:26.858Z,510.8
2022-10-25T12:24:00.828Z,396.4
2022-10-25T12:26:20.829Z,332.4
2022-10-25T12:28:26.550Z,394.2
2022-10-25T12:31:20.890Z,400.3
2022-10-25T12:34:01.205Z,501.2
2022-10-25T12:36:27.324Z,331.6
2022-10-25T12:38:39.236Z,324.7
2022-10-25T12:40:37.729Z,315.7
2022-10-25T12:43:23.597Z,287.1
2022-10-25T12:45:57.381Z,414.5
2022-10-25T12:48:13.476Z,360.3
2022-10-25T12:53:10.029Z,968.3
2022-10-25T12:55:48.379Z,508.4
2022-10-25T12:58:12.737Z,402.4
2022-10-25T13:00:22.896Z,513.9
2022-10-25T13:03:21.707Z,350.2
2022-10-25T13:06:06.483Z,661.7
2022-10-25T13:08:37.054Z,636.3
2022-10-25T13:10:53.341Z,604.9
2022-10-25T13:12:55.665Z,598
2022-10-25T13:15:46.605Z,633.6
2022-10-25T13:18:23.348Z,613.2
2022-10-25T13:20:45.857Z,574.2
2022-10-25T13:22:54.405Z,506.8
2022-10-25T13:25:51.616Z,572
2022-10-25T13:28:36.210Z,568.3
2022-10-25T13:31:03.444Z,384.3
2022-10-25T13:33:18.138Z,525.7
2022-10-25T13:35:18.527Z,343.3
2022-10-25T13:38:08.014Z,347.6
2022-10-25T13:40:42.409Z,377.6
2022-10-25T13:43:03.108Z,406.5
2022-10-25T13:45:09.774Z,669.1
2022-10-25T13:48:05.031Z,682.8
2022-10-25T13:50:46.280Z,703.3
2022-10-25T13:53:12.965Z,719
2022-10-25T13:55:25.783Z,702
2022-10-25T13:57:24.315Z,568.9
2022-10-25T14:00:11.502Z,496.8
2022-10-25T14:02:44.896Z,573.7
2022-10-25T14:05:03.649Z,567.2
2022-10-25T14:07:08.395Z,529.2
2022-10-25T14:10:02.097Z,379.3
2022-10-25T14:12:41.337Z,488.8
2022-10-25T14:15:06.447Z,465.6
2022-10-25T14:17:17.573Z,475.3
2022-10-25T14:20:17.326Z,483
2022-10-25T14:23:02.824Z,550.4
2022-10-25T14:25:34.024Z,457.4
2022-10-25T14:27:51.253Z,264.9
2022-10-25T14:29:54.297Z,228.6
2022-10-25T14:32:45.830Z,219.2
2022-10-25T14:35:23.168Z,381.6
2022-10-25T14:37:46.580Z,400
2022-10-25T14:39:55.766Z,388.8
2022-10-25T14:42:53.831Z,355.6
2022-10-25T14:45:37.629Z,274.2
2022-10-25T14:48:07.235Z,240.8
2022-10-25T14:50:22.511Z,224.9
2022-10-25T14:52:23.837Z,204.8
2022-10-25T14:55:13.684Z,226.9
2022-10-25T14:57:49.352Z,196.2
2022-10-25T15:00:11.069Z,213.1
2022-10-25T15:02:18.511Z,177.1
2022-10-25T15:05:14.583Z,223.8
2022-10-25T15:07:56.662Z,165
2022-10-25T15:10:24.432Z,166.5
2022-10-25T15:12:37.973Z,145.28
2022-10-25T15:14:37.484Z,143.36
2022-10-25T15:17:25.720Z,112.48
2022-10-25T15:19:40.505Z,96.68
2022-10-25T15:21:41.052Z,97.24
2022-10-25T15:24:29.814Z,109.24
2022-10-25T15:27:04.948Z,110.4
2022-10-25T15:29:25.881Z,122.64
2022-10-25T15:31:32.488Z,102.76
2022-10-25T15:34:27.964Z,89.32
2022-10-25T15:37:09.161Z,83.64
2022-10-25T15:39:36.148Z,82.88
2022-10-25T15:41:49.147Z,77.98
2022-10-25T15:43:47.926Z,71.24
2022-10-25T15:46:35.326Z,58.28
2022-10-25T15:49:08.700Z,49.46
2022-10-25T15:51:28.855Z,48.24
2022-10-25T15:53:32.453Z,43.46
2022-10-25T15:56:25.922Z,38.08
2022-10-25T15:59:05.516Z,32.82
2022-10-25T16:01:30.873Z,27.85
2022-10-25T16:03:41.857Z,23.92
2022-10-25T16:06:41.849Z,19.4
2022-10-25T16:09:27.586Z,14.08
2022-10-25T16:11:59.064Z,11.21
2022-10-25T16:14:16.328Z,9.66
2022-10-25T16:16:38.711Z,8.63
2022-10-25T16:19:11.116Z,6.67
2022-10-25T16:21:48.795Z,5.16
2022-10-25T16:24:12.447Z,3.85
2022-10-25T16:26:21.852Z,2.74
2022-10-25T16:29:19.881Z,1.73
2022-10-25T16:32:03.939Z,1.12
2022-10-25T16:34:33.710Z,0.72
2022-10-25T16:36:49.259Z,0.45
2022-10-25T16:38:50.747Z,0.32
2022-10-25T16:41:40.932Z,0.19
2022-10-25T16:44:16.899Z,0.12
2022-10-25T16:46:38.638Z,0.1
2022-10-25T16:48:46.297Z,0.08
2022-10-25T16:51:42.592Z,0.05
2022-10-25T16:54:24.615Z,0.03
2022-10-25T16:56:52.617Z,0.02
2022-10-25T17:03:54.480Z,0.01
2022-10-25T17:10:54.241Z,0.02
2022-10-25T17:13:48.890Z,0.01
2022-10-25T17:16:29.264Z,0.02
2022-10-25T17:18:55.422Z,0.01
2022-10-25T17:23:05.390Z,0.02
2022-10-25T17:25:51.958Z,0.01
2022-10-25T18:00:54.163Z,0
2022-10-25T18:03:16.810Z,0.01
2022-10-25T18:05:25.308Z,0
2022-10-25T18:13:34.678Z,0.01
2022-10-25T18:17:50.322Z,0
2022-10-25T18:20:39.178Z,0.01
2022-10-25T18:33:18.869Z,0
2022-10-25T19:44:56.806Z,0.01
2022-10-25T19:47:52.946Z,0
2022-10-25T19:50:35.042Z,0.01
2022-10-25T20:04:58.618Z,0
2022-10-25T20:17:16.961Z,0.01
2022-10-25T20:22:01.071Z,0
